Airfield :
LOGIN :

Register | Disclaimer

   EN    FR    IT 

 










Legend :    VFR   Marginal VFR   IFR   Intensive IFR   Very Intensive IFR
Visi :
Ceiling :
>= 8 km
>= 3000ft
5 to 8 km
1000 to 3000 ft
1500m to 5 km
500 to 1000 ft
800 to 1500m
200 to 500 ft
< 800m
< 200 ft
Symbols :   Thunderstorms  Fog  Heavy snow  Heavy precipitations  Wind > 20 kt
SIGMETs :     Misc.  Thunderstorms  Icing  Turbulence  Mountain Waves  Volcanic Ashes







- Airport Elevation : 191 ft
- IATA code : RNB


ESDF - Ronneby

CURRENT METAR :
  • 210220Z AUTO 23006KT 9999 FEW080/// 17/14 Q1007

EXPIRED METARs :
  • 210150Z AUTO 23006KT 190V260 9999 BKN025/// BKN110/// 18/15 Q1008
  • 210120Z AUTO 23006KT 9999 FEW027/// OVC110/// 18/15 Q1008
  • 210050Z AUTO 24007KT 9999 SCT026/// BKN088/// OVC110/// 18/15 Q1008
  • 210020Z AUTO 22006KT 190V250 9999 OVC026/// 18/15 Q1009
  • 202350Z AUTO 22006KT 180V260 9999 SCT068/// BKN088/// OVC120/// 18/15 Q1009

Expired Forecast.
No reported NOTAMs for that airfield.



MET'MAP, your aeronautical weather chart ! - Copyright ORBIFLY December 2007 - Disclaimer

ORBIFLY MET'MAP TEAM :

Programming & Development : Alexandra Zaïnal
Concept & Development : Baudouin d'Aumeries
Co-Development & Prog : Marc-Olivier Méhu
Technical & hardware support : Manuel Goepfert

Contact : metmap@orbifly.com




SOURCES & CREDITS :

   NOAA